Time;durP1;ratioP1;P1;durP2;ratioP2;P2;SDS_P1;SDS_P2;PMS_P1;PMS_P2;Temp;Humidity;BMP_temperature;BMP_pressure;BME280_temperature;BME280_humidity;BME280_pressure;Samples;Min_cycle;Max_cycle;Signal;HPM_P1;HPM_P2
2023/04/27 00:02:00;;;;;;;10.10;3.47;;;;;;;;;;5054372;28;20214;-87
2023/04/27 00:04:29;;;;;;;5.77;3.30;;;;;;;;;;5056049;28;20226;-87
2023/04/27 00:06:57;;;;;;;5.97;3.10;;;;;;;;;;5048504;28;20208;-87
2023/04/27 00:09:24;;;;;;;4.83;3.40;;;;;;;;;;5046164;28;20203;-87
2023/04/27 00:11:51;;;;;;;4.57;3.10;;;;;;;;;;5043450;28;20252;-87
2023/04/27 00:14:19;;;;;;;4.73;3.17;;;;;;;;;;5041750;28;20199;-87
2023/04/27 00:16:47;;;;;;;4.40;3.37;;;;;;;;;;5052966;28;20207;-87
2023/04/27 00:19:15;;;;;;;5.67;3.40;;;;;;;;;;5053934;28;20204;-87
2023/04/27 00:21:44;;;;;;;5.93;3.10;;;;;;;;;;5053228;28;20207;-87
2023/04/27 00:24:11;;;;;;;4.03;2.93;;;;;;;;;;5050057;28;20301;-88
2023/04/27 00:26:38;;;;;;;3.50;3.20;;;;;;;;;;5054157;28;20214;-87
2023/04/27 00:29:06;;;;;;;7.33;3.47;;;;;;;;;;5053031;28;20208;-87
2023/04/27 00:31:33;;;;;;;4.27;3.20;;;;;;;;;;5053664;28;20231;-87
2023/04/27 00:34:01;;;;;;;4.63;3.27;;;;;;;;;;5066208;28;20214;-87
2023/04/27 00:36:28;;;;;;;5.73;3.00;;;;;;;;;;5055992;28;20222;-88
2023/04/27 00:38:56;;;;;;;6.07;3.10;;;;;;;;;;5048495;28;20204;-87
2023/04/27 00:41:24;;;;;;;5.83;3.40;;;;;;;;;;5051042;28;20199;-87
2023/04/27 00:43:51;;;;;;;5.70;3.43;;;;;;;;;;5065299;28;20206;-87
2023/04/27 00:46:19;;;;;;;7.20;3.53;;;;;;;;;;5047428;28;20239;-88
2023/04/27 00:48:47;;;;;;;6.73;3.43;;;;;;;;;;5046358;28;20204;-87
2023/04/27 00:51:14;;;;;;;5.23;3.10;;;;;;;;;;5051432;28;20219;-87
2023/04/27 00:53:42;;;;;;;5.80;3.27;;;;;;;;;;5058872;28;20203;-87
2023/04/27 00:56:11;;;;;;;3.80;3.10;;;;;;;;;;5054558;28;20204;-88
2023/04/27 00:58:38;;;;;;;6.73;3.47;;;;;;;;;;5052450;28;20199;-87
2023/04/27 01:01:05;;;;;;;4.47;3.20;;;;;;;;;;5047071;28;20211;-88
2023/04/27 01:03:33;;;;;;;5.10;3.03;;;;;;;;;;5043010;28;20211;-87
2023/04/27 01:06:00;;;;;;;5.40;3.10;;;;;;;;;;5049687;28;20203;-87
2023/04/27 01:08:28;;;;;;;4.70;3.10;;;;;;;;;;5054483;28;20208;-87
2023/04/27 01:10:55;;;;;;;5.27;3.30;;;;;;;;;;5049591;28;20223;-87
2023/04/27 01:13:24;;;;;;;5.63;3.00;;;;;;;;;;5044403;28;20215;-87
2023/04/27 01:15:52;;;;;;;4.73;3.43;;;;;;;;;;5046944;28;20295;-87
2023/04/27 01:18:19;;;;;;;3.93;3.10;;;;;;;;;;5052131;28;20233;-88
2023/04/27 01:20:46;;;;;;;4.90;3.20;;;;;;;;;;5050352;28;20196;-87
2023/04/27 01:23:16;;;;;;;3.70;3.30;;;;;;;;;;5053923;28;20283;-87
2023/04/27 01:25:43;;;;;;;6.13;2.93;;;;;;;;;;5049562;28;20261;-87
2023/04/27 01:28:10;;;;;;;4.50;3.10;;;;;;;;;;5057875;28;20194;-88
2023/04/27 01:30:38;;;;;;;5.50;3.30;;;;;;;;;;5044562;28;20271;-87
2023/04/27 01:33:05;;;;;;;6.50;3.20;;;;;;;;;;5050745;28;20216;-87
2023/04/27 01:35:32;;;;;;;7.17;3.30;;;;;;;;;;5052708;28;20195;-87
2023/04/27 01:38:00;;;;;;;5.57;2.90;;;;;;;;;;5049612;28;20208;-88
2023/04/27 01:40:29;;;;;;;6.43;3.17;;;;;;;;;;5053369;28;20296;-87
2023/04/27 01:42:56;;;;;;;7.07;3.10;;;;;;;;;;5045581;28;20243;-87
2023/04/27 01:45:24;;;;;;;5.50;3.40;;;;;;;;;;5043432;28;20204;-87
2023/04/27 01:47:51;;;;;;;4.20;3.60;;;;;;;;;;5047130;28;20191;-87
2023/04/27 01:50:19;;;;;;;6.13;3.40;;;;;;;;;;5050474;28;20309;-87
2023/04/27 01:52:46;;;;;;;7.47;3.27;;;;;;;;;;5056881;28;20225;-87
2023/04/27 01:55:14;;;;;;;6.67;3.20;;;;;;;;;;5050875;28;20200;-87
2023/04/27 01:57:42;;;;;;;4.10;3.13;;;;;;;;;;5054181;28;20214;-87
2023/04/27 02:00:10;;;;;;;5.33;3.30;;;;;;;;;;5050066;28;20203;-87
2023/04/27 02:02:38;;;;;;;4.23;3.00;;;;;;;;;;5044123;28;20236;-87
2023/04/27 02:05:05;;;;;;;4.47;2.87;;;;;;;;;;5047376;28;20202;-88
2023/04/27 02:07:32;;;;;;;7.03;3.20;;;;;;;;;;5047490;28;20199;-88
2023/04/27 02:10:00;;;;;;;7.03;3.23;;;;;;;;;;5049853;28;20206;-87
2023/04/27 02:12:27;;;;;;;4.30;3.10;;;;;;;;;;5050468;28;20247;-87
2023/04/27 02:14:56;;;;;;;6.90;3.17;;;;;;;;;;5050605;28;20212;-87
2023/04/27 02:17:23;;;;;;;7.10;3.23;;;;;;;;;;5050806;28;20286;-87
2023/04/27 02:19:51;;;;;;;5.70;3.17;;;;;;;;;;5067461;28;20233;-87
2023/04/27 02:22:18;;;;;;;3.67;2.83;;;;;;;;;;5045375;28;20231;-87
2023/04/27 02:24:45;;;;;;;4.27;3.07;;;;;;;;;;5042602;28;20211;-87
2023/04/27 02:27:13;;;;;;;4.77;2.97;;;;;;;;;;5045430;28;20216;-87
2023/04/27 02:29:40;;;;;;;6.40;3.10;;;;;;;;;;5049345;28;20210;-87
2023/04/27 02:32:09;;;;;;;6.97;3.20;;;;;;;;;;5050393;28;20247;-87
2023/04/27 02:34:36;;;;;;;4.37;3.33;;;;;;;;;;5049802;28;20203;-87
2023/04/27 02:37:03;;;;;;;6.00;3.10;;;;;;;;;;5054182;28;20199;-87
2023/04/27 02:39:31;;;;;;;5.00;3.10;;;;;;;;;;5046239;28;20199;-87
2023/04/27 02:41:58;;;;;;;4.57;3.10;;;;;;;;;;5048784;28;20207;-87
2023/04/27 02:44:25;;;;;;;5.17;3.10;;;;;;;;;;5044216;28;20210;-87
2023/04/27 02:46:53;;;;;;;4.17;2.80;;;;;;;;;;5041652;28;20265;-87
2023/04/27 02:49:21;;;;;;;5.97;3.63;;;;;;;;;;5047695;28;20222;-87
2023/04/27 02:51:48;;;;;;;4.90;3.43;;;;;;;;;;5046664;28;20212;-87
2023/04/27 02:54:16;;;;;;;4.93;3.37;;;;;;;;;;5038582;28;20214;-87
2023/04/27 02:56:43;;;;;;;3.67;2.83;;;;;;;;;;5052697;28;20203;-87
2023/04/27 02:59:10;;;;;;;4.63;3.13;;;;;;;;;;5051157;28;20239;-87
2023/04/27 03:01:38;;;;;;;5.90;3.10;;;;;;;;;;5045018;28;20241;-87
2023/04/27 03:04:05;;;;;;;4.33;3.00;;;;;;;;;;5046908;28;20233;-87
2023/04/27 03:06:34;;;;;;;5.10;2.90;;;;;;;;;;5050456;28;20290;-87
2023/04/27 03:09:04;;;;;;;4.43;3.03;;;;;;;;;;5050599;28;20256;-87
2023/04/27 03:11:31;;;;;;;6.70;3.17;;;;;;;;;;5046615;28;20219;-87
2023/04/27 03:13:59;;;;;;;5.10;3.10;;;;;;;;;;5041305;28;20219;-87
2023/04/27 03:16:26;;;;;;;4.30;3.10;;;;;;;;;;5046695;28;20208;-87
2023/04/27 03:18:53;;;;;;;5.13;3.20;;;;;;;;;;5037887;28;20203;-87
2023/04/27 03:21:21;;;;;;;4.40;3.30;;;;;;;;;;5048705;28;20206;-87
2023/04/27 03:23:49;;;;;;;5.97;3.30;;;;;;;;;;5048707;28;20208;-87
2023/04/27 03:26:17;;;;;;;4.73;3.00;;;;;;;;;;5048543;28;20216;-87
2023/04/27 03:28:44;;;;;;;4.27;2.87;;;;;;;;;;5045581;28;20288;-87
2023/04/27 03:31:13;;;;;;;4.97;3.40;;;;;;;;;;5040801;28;20241;-87
2023/04/27 03:33:40;;;;;;;6.30;3.17;;;;;;;;;;5054270;28;20237;-87
2023/04/27 03:36:09;;;;;;;4.33;2.87;;;;;;;;;;5041503;28;20207;-87
2023/04/27 03:38:37;;;;;;;5.67;3.03;;;;;;;;;;5050345;28;20198;-87
2023/04/27 03:41:06;;;;;;;4.17;3.17;;;;;;;;;;5050755;28;20207;-87
2023/04/27 03:43:33;;;;;;;5.07;3.13;;;;;;;;;;5045290;28;20200;-87
2023/04/27 03:46:00;;;;;;;4.97;3.40;;;;;;;;;;5045669;28;20204;-87
2023/04/27 03:48:27;;;;;;;4.87;3.00;;;;;;;;;;5049290;28;20202;-87
2023/04/27 03:50:55;;;;;;;7.70;3.63;;;;;;;;;;5042139;28;20196;-87
2023/04/27 03:53:22;;;;;;;3.90;3.10;;;;;;;;;;5046139;28;20223;-87
2023/04/27 03:55:49;;;;;;;5.17;3.33;;;;;;;;;;5044818;28;20204;-87
2023/04/27 03:58:18;;;;;;;5.83;3.10;;;;;;;;;;5044852;28;20199;-88
2023/04/27 04:00:45;;;;;;;4.87;3.50;;;;;;;;;;5046953;28;20197;-87
2023/04/27 04:03:13;;;;;;;5.77;3.20;;;;;;;;;;5049563;28;20229;-87
2023/04/27 04:05:40;;;;;;;5.43;3.50;;;;;;;;;;5045209;28;20211;-87
2023/04/27 04:08:07;;;;;;;6.20;3.17;;;;;;;;;;5060434;28;20211;-87
2023/04/27 04:10:35;;;;;;;6.43;3.30;;;;;;;;;;5044385;28;20286;-87
2023/04/27 04:13:02;;;;;;;4.67;3.17;;;;;;;;;;5043968;28;20236;-87
2023/04/27 04:15:31;;;;;;;3.47;3.13;;;;;;;;;;5046246;28;20198;-87
2023/04/27 04:17:58;;;;;;;4.27;3.17;;;;;;;;;;5048723;28;20201;-87
2023/04/27 04:20:26;;;;;;;9.00;3.60;;;;;;;;;;5046439;28;20200;-88
2023/04/27 04:22:53;;;;;;;6.40;3.63;;;;;;;;;;5042095;28;20204;-87
2023/04/27 04:25:21;;;;;;;3.53;3.23;;;;;;;;;;5044013;28;20191;-87
2023/04/27 04:27:48;;;;;;;3.70;3.30;;;;;;;;;;5061683;28;20211;-87
2023/04/27 04:30:16;;;;;;;3.53;3.07;;;;;;;;;;5043931;28;20199;-87
2023/04/27 04:32:45;;;;;;;3.60;3.30;;;;;;;;;;5050076;28;20231;-88
2023/04/27 04:35:13;;;;;;;6.03;3.57;;;;;;;;;;5042476;28;20208;-87
2023/04/27 04:37:40;;;;;;;6.57;3.60;;;;;;;;;;5049018;28;20202;-87
2023/04/27 04:40:09;;;;;;;5.40;3.50;;;;;;;;;;5054042;28;20257;-87
2023/04/27 04:42:37;;;;;;;4.03;3.63;;;;;;;;;;5044046;28;20207;-87
2023/04/27 04:45:04;;;;;;;4.70;3.40;;;;;;;;;;5048412;28;20207;-87
2023/04/27 04:47:32;;;;;;;6.53;3.40;;;;;;;;;;5045595;28;20238;-87
2023/04/27 04:50:02;;;;;;;4.80;3.43;;;;;;;;;;5052484;28;20203;-86
2023/04/27 04:52:30;;;;;;;7.87;3.43;;;;;;;;;;5056809;28;20234;-87
2023/04/27 04:54:57;;;;;;;6.50;4.00;;;;;;;;;;5051154;28;20208;-87
2023/04/27 04:57:24;;;;;;;6.77;4.00;;;;;;;;;;5046557;28;20199;-87
2023/04/27 04:59:52;;;;;;;4.10;3.50;;;;;;;;;;5044292;28;20203;-87
2023/04/27 05:02:19;;;;;;;7.07;3.60;;;;;;;;;;5043935;28;20200;-87
2023/04/27 05:04:47;;;;;;;8.17;3.50;;;;;;;;;;5046344;28;20226;-89
2023/04/27 05:07:16;;;;;;;3.77;2.90;;;;;;;;;;5041789;28;20203;-87
2023/04/27 05:09:43;;;;;;;6.23;3.70;;;;;;;;;;5050951;28;20200;-87
2023/04/27 05:12:15;;;;;;;6.70;3.50;;;;;;;;;;5045749;28;20223;-87
2023/04/27 05:14:47;;;;;;;3.63;3.00;;;;;;;;;;5046801;28;20202;-87
2023/04/27 05:17:19;;;;;;;4.43;3.30;;;;;;;;;;5043213;28;20204;-88
2023/04/27 05:19:46;;;;;;;5.70;3.13;;;;;;;;;;5041270;28;20252;-90
2023/04/27 05:22:14;;;;;;;7.70;3.77;;;;;;;;;;5040232;28;20257;-89
2023/04/27 05:24:43;;;;;;;6.07;3.50;;;;;;;;;;5047994;28;20210;-87
2023/04/27 05:27:10;;;;;;;4.60;3.50;;;;;;;;;;5052529;28;20200;-87
2023/04/27 05:29:37;;;;;;;3.63;3.20;;;;;;;;;;5048492;28;20211;-93
2023/04/27 05:32:05;;;;;;;3.50;3.13;;;;;;;;;;5047851;28;20227;-88
2023/04/27 05:34:32;;;;;;;4.07;3.50;;;;;;;;;;5045582;28;20289;-89
2023/04/27 05:37:00;;;;;;;5.63;3.60;;;;;;;;;;5048335;28;20199;-88
2023/04/27 05:39:27;;;;;;;5.23;3.70;;;;;;;;;;5048059;28;20207;-88
2023/04/27 05:41:56;;;;;;;6.30;3.77;;;;;;;;;;5049803;28;20291;-88
2023/04/27 05:44:27;;;;;;;8.83;3.60;;;;;;;;;;5052338;28;20199;-88
2023/04/27 05:46:54;;;;;;;7.27;4.00;;;;;;;;;;5050982;28;20191;-88
2023/04/27 05:49:22;;;;;;;4.90;3.73;;;;;;;;;;5045077;28;20200;-88
2023/04/27 05:51:50;;;;;;;6.17;3.47;;;;;;;;;;5041022;28;20203;-88
2023/04/27 05:54:18;;;;;;;5.20;3.50;;;;;;;;;;5042060;28;20227;-88
2023/04/27 05:56:45;;;;;;;5.63;3.63;;;;;;;;;;5048967;28;20204;-88
2023/04/27 05:59:14;;;;;;;4.10;3.50;;;;;;;;;;5038083;28;20278;-89
2023/04/27 06:01:42;;;;;;;7.27;3.30;;;;;;;;;;5050057;28;20226;-89
2023/04/27 06:04:10;;;;;;;4.53;3.50;;;;;;;;;;5052859;28;20267;-89
2023/04/27 06:06:37;;;;;;;4.97;3.37;;;;;;;;;;5050044;28;20253;-88
2023/04/27 06:09:07;;;;;;;6.40;4.00;;;;;;;;;;5043102;28;20199;-88
2023/04/27 06:11:38;;;;;;;5.57;3.90;;;;;;;;;;5041445;28;20210;-89
2023/04/27 06:14:06;;;;;;;5.97;3.73;;;;;;;;;;5046249;28;20230;-88
2023/04/27 06:16:37;;;;;;;3.63;3.10;;;;;;;;;;5046810;28;20234;-89
2023/04/27 06:19:05;;;;;;;4.70;3.57;;;;;;;;;;5042798;28;20218;-89
2023/04/27 06:21:36;;;;;;;4.10;3.33;;;;;;;;;;5051018;28;20224;-88
2023/04/27 06:24:10;;;;;;;6.20;3.60;;;;;;;;;;5049291;28;20227;-89
2023/04/27 06:26:39;;;;;;;7.60;3.53;;;;;;;;;;5051567;28;20198;-89
2023/04/27 06:29:09;;;;;;;8.00;3.50;;;;;;;;;;5048151;28;20203;-89
2023/04/27 06:31:41;;;;;;;6.60;3.40;;;;;;;;;;5052464;28;20258;-89
2023/04/27 06:34:27;;;;;;;5.23;3.50;;;;;;;;;;5041941;28;20228;-89
2023/04/27 06:36:55;;;;;;;4.67;2.87;;;;;;;;;;5052898;28;20265;-89
2023/04/27 06:39:40;;;;;;;8.00;3.67;;;;;;;;;;5051406;28;20210;-89
2023/04/27 06:42:08;;;;;;;5.53;3.33;;;;;;;;;;5037534;28;20235;-89
2023/04/27 06:44:36;;;;;;;7.37;3.50;;;;;;;;;;5036256;28;20196;-89
2023/04/27 06:47:10;;;;;;;6.47;3.40;;;;;;;;;;5044038;28;20203;-89
2023/04/27 06:49:43;;;;;;;4.70;3.07;;;;;;;;;;5037787;28;20202;-89
2023/04/27 06:52:10;;;;;;;5.00;3.57;;;;;;;;;;5048539;28;20203;-89
2023/04/27 06:54:38;;;;;;;4.37;3.10;;;;;;;;;;5049686;28;20243;-89
2023/04/27 06:57:06;;;;;;;6.00;3.10;;;;;;;;;;5042932;28;20203;-89
2023/04/27 06:59:34;;;;;;;4.10;3.13;;;;;;;;;;5045025;28;20204;-89
2023/04/27 07:02:02;;;;;;;5.20;3.30;;;;;;;;;;5045438;28;20203;-89
2023/04/27 07:04:31;;;;;;;6.57;3.20;;;;;;;;;;5047808;28;20254;-89
2023/04/27 07:06:58;;;;;;;6.10;3.17;;;;;;;;;;5044518;28;20210;-88
2023/04/27 07:09:27;;;;;;;5.90;2.97;;;;;;;;;;5051485;28;20209;-89
2023/04/27 07:11:56;;;;;;;5.17;3.00;;;;;;;;;;5043824;28;20231;-89
2023/04/27 07:14:23;;;;;;;5.90;3.23;;;;;;;;;;5045003;28;20216;-89
2023/04/27 07:16:51;;;;;;;4.90;2.70;;;;;;;;;;5044607;28;20195;-89
2023/04/27 07:19:18;;;;;;;6.77;3.23;;;;;;;;;;5040972;28;20233;-89
2023/04/27 07:21:48;;;;;;;4.33;3.07;;;;;;;;;;5043831;28;20203;-89
2023/04/27 07:24:16;;;;;;;5.07;2.90;;;;;;;;;;5043920;28;20287;-89
2023/04/27 07:26:44;;;;;;;6.47;3.20;;;;;;;;;;5043873;28;20200;-89
2023/04/27 07:29:12;;;;;;;5.23;3.10;;;;;;;;;;5051161;28;20202;-89
2023/04/27 07:31:39;;;;;;;5.53;2.93;;;;;;;;;;5049801;28;20303;-89
2023/04/27 07:34:07;;;;;;;4.73;2.87;;;;;;;;;;5048059;28;20216;-89
2023/04/27 07:36:34;;;;;;;5.67;2.97;;;;;;;;;;5050789;28;20210;-89
2023/04/27 07:39:05;;;;;;;4.77;2.80;;;;;;;;;;5050338;28;20267;-89
2023/04/27 07:41:33;;;;;;;4.70;3.00;;;;;;;;;;5050590;28;20210;-89
2023/04/27 07:44:01;;;;;;;6.17;2.97;;;;;;;;;;5041847;28;20207;-89
2023/04/27 07:46:29;;;;;;;4.70;3.07;;;;;;;;;;5045890;28;20199;-89
2023/04/27 07:48:58;;;;;;;5.70;3.10;;;;;;;;;;5038398;28;20226;-89
2023/04/27 07:51:27;;;;;;;4.20;3.17;;;;;;;;;;5049506;28;20199;-89
2023/04/27 07:53:55;;;;;;;5.40;3.00;;;;;;;;;;5044670;28;20227;-89
2023/04/27 07:56:24;;;;;;;5.23;3.10;;;;;;;;;;5034477;28;20204;-89
2023/04/27 07:58:52;;;;;;;6.50;3.20;;;;;;;;;;5040150;28;20223;-89
2023/04/27 08:01:20;;;;;;;4.73;3.07;;;;;;;;;;5041230;28;20210;-90
2023/04/27 08:03:47;;;;;;;4.83;2.90;;;;;;;;;;5046534;28;20199;-89
2023/04/27 08:06:15;;;;;;;5.23;2.80;;;;;;;;;;5041273;28;20197;-89
2023/04/27 08:08:43;;;;;;;5.50;3.03;;;;;;;;;;5048269;28;20265;-89
2023/04/27 08:11:10;;;;;;;5.13;2.83;;;;;;;;;;5052269;28;20203;-89
2023/04/27 08:13:40;;;;;;;3.33;2.70;;;;;;;;;;5055200;28;20243;-89
2023/04/27 08:16:07;;;;;;;3.63;2.70;;;;;;;;;;5050222;28;20211;-89
2023/04/27 08:18:35;;;;;;;4.07;2.60;;;;;;;;;;5051140;28;20204;-89
2023/04/27 08:21:03;;;;;;;4.90;2.90;;;;;;;;;;5073720;28;20230;-90
2023/04/27 08:23:31;;;;;;;3.80;2.70;;;;;;;;;;5051924;28;20217;-89
2023/04/27 08:25:59;;;;;;;3.73;2.77;;;;;;;;;;5053544;28;20214;-89
2023/04/27 08:28:27;;;;;;;7.43;2.53;;;;;;;;;;5055626;28;20211;-89
2023/04/27 08:30:56;;;;;;;5.13;2.83;;;;;;;;;;5047213;28;20235;-89
2023/04/27 08:33:24;;;;;;;3.03;2.70;;;;;;;;;;5046224;28;20212;-89
2023/04/27 08:35:51;;;;;;;6.27;2.80;;;;;;;;;;5044115;28;20219;-89
2023/04/27 08:38:19;;;;;;;5.78;2.58;;;;;;;;;;5052423;28;20204;-89
2023/04/27 08:40:46;;;;;;;4.87;2.90;;;;;;;;;;5046591;28;20204;-89
2023/04/27 08:43:14;;;;;;;4.30;2.40;;;;;;;;;;5046397;28;20207;-89
2023/04/27 08:45:48;;;;;;;5.68;2.70;;;;;;;;;;5044404;28;20199;-90
2023/04/27 08:48:17;;;;;;;6.40;2.92;;;;;;;;;;5046902;28;20196;-89
2023/04/27 08:50:45;;;;;;;5.45;2.97;;;;;;;;;;5046560;28;20196;-89
2023/04/27 08:53:20;;;;;;;4.25;2.60;;;;;;;;;;5042773;28;20224;-89
2023/04/27 08:55:48;;;;;;;6.68;3.40;;;;;;;;;;5052345;28;20206;-89
2023/04/27 08:58:15;;;;;;;4.70;2.80;;;;;;;;;;5053480;28;20218;-89
2023/04/27 09:00:45;;;;;;;5.30;3.05;;;;;;;;;;5044398;28;20278;-89
2023/04/27 09:03:23;;;;;;;4.82;3.22;;;;;;;;;;5050428;28;20219;-89
2023/04/27 09:05:51;;;;;;;5.57;3.22;;;;;;;;;;5046288;28;20204;-89
2023/04/27 09:08:19;;;;;;;6.30;2.70;;;;;;;;;;5038918;28;20219;-89
2023/04/27 09:10:46;;;;;;;5.78;3.10;;;;;;;;;;5047641;28;20257;-90
2023/04/27 09:13:14;;;;;;;5.18;2.60;;;;;;;;;;5055981;28;20285;-89
2023/04/27 09:15:42;;;;;;;4.93;2.80;;;;;;;;;;5054931;28;20268;-89
2023/04/27 09:18:13;;;;;;;4.55;2.97;;;;;;;;;;5047885;28;20218;-89
2023/04/27 09:20:45;;;;;;;2.80;2.58;;;;;;;;;;5044091;28;20196;-89
2023/04/27 09:23:13;;;;;;;7.00;2.80;;;;;;;;;;5046467;28;20200;-89
2023/04/27 09:25:40;;;;;;;4.00;2.70;;;;;;;;;;5054616;28;20200;-89
2023/04/27 09:28:08;;;;;;;4.60;2.78;;;;;;;;;;5053426;28;20207;-89
2023/04/27 09:30:37;;;;;;;6.15;2.80;;;;;;;;;;5057435;28;20200;-89
2023/04/27 09:33:06;;;;;;;6.22;3.17;;;;;;;;;;5054685;28;20215;-89
2023/04/27 09:35:34;;;;;;;4.07;2.70;;;;;;;;;;5052366;28;20227;-89
2023/04/27 09:38:03;;;;;;;5.82;2.85;;;;;;;;;;5048092;28;20306;-89
2023/04/27 09:40:32;;;;;;;5.25;2.90;;;;;;;;;;5054083;28;20204;-89
2023/04/27 09:43:01;;;;;;;7.85;3.35;;;;;;;;;;5048196;28;20207;-89
2023/04/27 09:45:29;;;;;;;6.10;3.45;;;;;;;;;;5052676;28;20226;-89
2023/04/27 09:47:56;;;;;;;5.93;2.88;;;;;;;;;;5051459;28;20215;-89
2023/04/27 09:50:24;;;;;;;5.10;2.88;;;;;;;;;;5043754;28;20211;-89
2023/04/27 09:52:52;;;;;;;7.60;3.00;;;;;;;;;;5044753;28;20219;-89
2023/04/27 09:55:23;;;;;;;4.10;2.92;;;;;;;;;;5052987;28;20210;-89
2023/04/27 09:57:54;;;;;;;4.13;2.92;;;;;;;;;;5051309;28;20202;-89
2023/04/27 10:00:33;;;;;;;3.63;2.80;;;;;;;;;;5044450;28;20227;-89
2023/04/27 10:03:08;;;;;;;5.32;2.83;;;;;;;;;;5041211;28;20211;-89
2023/04/27 10:05:42;;;;;;;7.00;3.00;;;;;;;;;;5038776;28;20207;-90
2023/04/27 10:08:10;;;;;;;3.88;2.60;;;;;;;;;;5045436;28;20234;-89
2023/04/27 10:10:48;;;;;;;4.72;2.85;;;;;;;;;;5044593;28;20208;-89
2023/04/27 10:13:23;;;;;;;4.43;2.42;;;;;;;;;;5042593;28;20199;-90
2023/04/27 10:15:51;;;;;;;4.95;2.55;;;;;;;;;;5051818;28;20195;-88
2023/04/27 10:18:31;;;;;;;5.00;2.55;;;;;;;;;;5042430;28;20200;-89
2023/04/27 10:21:10;;;;;;;2.92;2.47;;;;;;;;;;5040472;28;20243;-88
2023/04/27 10:23:47;;;;;;;3.67;2.60;;;;;;;;;;5050878;28;20202;-88
2023/04/27 10:26:22;;;;;;;4.13;2.45;;;;;;;;;;5044959;28;20203;-89
2023/04/27 10:28:57;;;;;;;4.22;2.28;;;;;;;;;;5038289;28;20196;-89
2023/04/27 10:31:28;;;;;;;3.33;2.25;;;;;;;;;;5049066;28;20246;-89
2023/04/27 10:34:06;;;;;;;6.28;2.83;;;;;;;;;;5043079;28;20211;-89
2023/04/27 10:36:36;;;;;;;4.72;2.50;;;;;;;;;;5043149;28;20222;-89
2023/04/27 10:39:04;;;;;;;5.68;2.65;;;;;;;;;;5042422;28;20267;-89
2023/04/27 10:41:36;;;;;;;5.95;2.40;;;;;;;;;;5042366;28;20211;-89
2023/04/27 10:44:17;;;;;;;5.18;2.58;;;;;;;;;;5045870;28;20214;-89
2023/04/27 10:46:53;;;;;;;5.10;2.50;;;;;;;;;;5051147;28;20203;-89
2023/04/27 10:49:21;;;;;;;3.13;2.38;;;;;;;;;;5039404;28;20199;-89
2023/04/27 10:51:50;;;;;;;4.82;2.60;;;;;;;;;;5043681;28;20283;-89
2023/04/27 10:54:18;;;;;;;4.78;2.60;;;;;;;;;;5047150;28;20298;-89
2023/04/27 10:56:47;;;;;;;5.85;2.45;;;;;;;;;;5045874;28;20200;-89
2023/04/27 10:59:16;;;;;;;4.18;2.35;;;;;;;;;;5050308;28;20204;-89
2023/04/27 11:01:48;;;;;;;6.50;2.45;;;;;;;;;;5049275;28;20203;-89
2023/04/27 11:04:24;;;;;;;4.03;2.60;;;;;;;;;;5052437;28;20206;-90
2023/04/27 11:06:53;;;;;;;5.20;2.60;;;;;;;;;;5039445;28;20210;-89
2023/04/27 11:09:26;;;;;;;3.50;2.45;;;;;;;;;;5042553;28;20219;-89
2023/04/27 11:11:55;;;;;;;5.57;2.55;;;;;;;;;;5046064;28;20247;-89
2023/04/27 11:14:23;;;;;;;6.82;2.35;;;;;;;;;;5039455;28;20219;-90
2023/04/27 11:16:53;;;;;;;4.00;2.35;;;;;;;;;;5048284;28;20211;-89
2023/04/27 11:19:24;;;;;;;4.68;2.70;;;;;;;;;;5040101;28;20211;-90
2023/04/27 11:21:55;;;;;;;2.83;2.00;;;;;;;;;;5044824;28;20205;-89
2023/04/27 11:24:23;;;;;;;3.17;2.17;;;;;;;;;;5044827;28;20203;-90
2023/04/27 11:26:54;;;;;;;5.07;2.40;;;;;;;;;;5052229;28;20203;-89
2023/04/27 11:29:26;;;;;;;3.97;2.05;;;;;;;;;;5044064;28;20195;-89
2023/04/27 11:31:54;;;;;;;4.28;1.80;;;;;;;;;;5043703;28;20242;-90
2023/04/27 11:34:26;;;;;;;4.65;1.80;;;;;;;;;;5048629;28;20305;-90
2023/04/27 11:37:02;;;;;;;4.20;2.20;;;;;;;;;;5045324;28;20200;-89
2023/04/27 11:39:30;;;;;;;5.05;2.50;;;;;;;;;;5050354;28;20217;-90
2023/04/27 11:42:16;;;;;;;3.45;2.15;;;;;;;;;;5041924;28;20203;-90
2023/04/27 11:44:50;;;;;;;3.42;1.98;;;;;;;;;;5042641;28;20290;-90
2023/04/27 11:47:21;;;;;;;3.22;1.90;;;;;;;;;;5038270;28;20287;-90
2023/04/27 11:49:49;;;;;;;2.30;2.10;;;;;;;;;;5046286;28;20227;-89
2023/04/27 11:52:18;;;;;;;3.30;2.20;;;;;;;;;;5049069;28;20207;-89
2023/04/27 11:54:52;;;;;;;3.17;2.00;;;;;;;;;;5066657;28;20241;-90
2023/04/27 11:57:25;;;;;;;6.28;2.20;;;;;;;;;;5038605;28;20201;-89
2023/04/27 11:59:54;;;;;;;5.40;2.08;;;;;;;;;;5049821;28;20238;-89
2023/04/27 12:02:22;;;;;;;4.65;2.33;;;;;;;;;;5050424;28;20203;-90
2023/04/27 12:04:49;;;;;;;4.93;1.92;;;;;;;;;;5046767;28;20253;-89
2023/04/27 12:07:17;;;;;;;4.00;1.95;;;;;;;;;;5046983;28;20286;-89
2023/04/27 12:09:44;;;;;;;2.25;1.85;;;;;;;;;;5044664;28;20298;-88
2023/04/27 12:12:12;;;;;;;4.15;2.25;;;;;;;;;;5043041;28;20279;-88
2023/04/27 12:14:40;;;;;;;4.22;2.05;;;;;;;;;;5044842;28;20298;-89
2023/04/27 12:17:09;;;;;;;4.22;2.05;;;;;;;;;;5044206;28;20200;-88
2023/04/27 12:19:36;;;;;;;4.03;2.17;;;;;;;;;;5039136;28;20212;-88
2023/04/27 12:22:04;;;;;;;3.58;2.08;;;;;;;;;;5043268;28;20214;-89
2023/04/27 12:24:32;;;;;;;4.38;2.38;;;;;;;;;;5049367;28;20207;-89
2023/04/27 12:27:00;;;;;;;3.33;2.17;;;;;;;;;;5041658;28;20207;-89
2023/04/27 12:29:27;;;;;;;6.55;2.35;;;;;;;;;;5042431;28;20235;-88
2023/04/27 12:31:54;;;;;;;4.30;2.17;;;;;;;;;;5041261;28;20227;-89
2023/04/27 12:34:23;;;;;;;5.38;2.38;;;;;;;;;;5041970;28;20219;-89
2023/04/27 12:36:51;;;;;;;3.45;2.15;;;;;;;;;;5042661;28;20196;-89
2023/04/27 12:39:19;;;;;;;2.88;2.10;;;;;;;;;;5037650;28;20227;-89
2023/04/27 12:41:47;;;;;;;4.65;2.40;;;;;;;;;;5037899;28;20221;-89
2023/04/27 12:44:15;;;;;;;4.40;1.85;;;;;;;;;;5043830;28;20215;-89
2023/04/27 12:46:43;;;;;;;5.88;1.75;;;;;;;;;;5045660;28;20196;-88
2023/04/27 12:49:11;;;;;;;3.33;1.80;;;;;;;;;;5044456;28;20239;-88
2023/04/27 12:51:40;;;;;;;2.92;1.85;;;;;;;;;;5043931;28;20212;-88
2023/04/27 12:54:07;;;;;;;5.82;2.42;;;;;;;;;;5044073;28;20207;-87
2023/04/27 12:56:35;;;;;;;4.32;2.03;;;;;;;;;;5043384;28;20216;-89
2023/04/27 12:59:02;;;;;;;2.55;1.95;;;;;;;;;;5045217;28;20208;-89
2023/04/27 13:01:30;;;;;;;3.90;2.00;;;;;;;;;;5046464;28;20234;-90
2023/04/27 13:03:59;;;;;;;4.40;1.73;;;;;;;;;;5046666;28;20204;-87
2023/04/27 13:06:27;;;;;;;5.28;2.20;;;;;;;;;;5047346;28;20224;-88
2023/04/27 13:08:56;;;;;;;3.33;1.80;;;;;;;;;;5047656;28;20208;-88
2023/04/27 13:11:24;;;;;;;4.95;2.10;;;;;;;;;;5048320;28;20211;-89
2023/04/27 13:13:51;;;;;;;2.45;1.83;;;;;;;;;;5045872;28;20286;-89
2023/04/27 13:16:20;;;;;;;5.57;1.80;;;;;;;;;;5044584;28;20299;-90
2023/04/27 13:18:49;;;;;;;3.67;2.22;;;;;;;;;;5038074;28;20207;-89
2023/04/27 13:21:17;;;;;;;3.30;2.42;;;;;;;;;;5041036;28;20231;-90
2023/04/27 13:23:44;;;;;;;4.30;2.40;;;;;;;;;;5045306;28;20204;-90
2023/04/27 13:26:13;;;;;;;2.53;1.70;;;;;;;;;;5046016;28;20212;-89
2023/04/27 13:44:00;;;;;;;3.83;2.10;;;;;;;;;;5027467;28;20295;-90
2023/04/27 13:46:27;;;;;;;4.50;2.45;;;;;;;;;;5048981;28;20250;-90
2023/04/27 13:48:55;;;;;;;3.38;2.05;;;;;;;;;;5057713;28;20204;-90
2023/04/27 13:51:23;;;;;;;6.25;2.70;;;;;;;;;;5063346;28;20200;-90
2023/04/27 13:53:51;;;;;;;5.28;2.50;;;;;;;;;;5049092;28;20226;-90
2023/04/27 13:56:18;;;;;;;5.65;2.25;;;;;;;;;;5055093;28;20283;-90
2023/04/27 13:58:45;;;;;;;2.70;2.00;;;;;;;;;;5042322;28;20216;-90
2023/04/27 14:01:14;;;;;;;4.85;2.30;;;;;;;;;;5051123;28;20211;-90
2023/04/27 14:03:42;;;;;;;3.33;2.00;;;;;;;;;;5036282;28;20216;-90
2023/04/27 14:06:09;;;;;;;4.55;2.20;;;;;;;;;;5048778;28;20215;-90
2023/04/27 14:08:36;;;;;;;3.03;2.13;;;;;;;;;;5054720;28;20211;-90
2023/04/27 14:11:04;;;;;;;2.63;2.13;;;;;;;;;;5040950;28;20259;-90
2023/04/27 14:13:32;;;;;;;3.60;2.30;;;;;;;;;;5044372;28;20211;-90
2023/04/27 14:15:59;;;;;;;4.75;2.05;;;;;;;;;;5041797;28;20226;-89
2023/04/27 14:18:28;;;;;;;4.18;2.10;;;;;;;;;;5042460;28;20204;-90
2023/04/27 14:20:55;;;;;;;4.68;2.47;;;;;;;;;;5049306;28;20209;-89
2023/04/27 14:23:23;;;;;;;3.38;2.25;;;;;;;;;;5040930;28;20253;-90
2023/04/27 14:25:50;;;;;;;2.45;2.05;;;;;;;;;;5049064;28;20295;-90
2023/04/27 14:28:17;;;;;;;2.25;1.77;;;;;;;;;;5045805;28;20220;-90
2023/04/27 14:30:44;;;;;;;2.03;1.60;;;;;;;;;;5038582;28;20223;-89
2023/04/27 14:33:12;;;;;;;3.60;2.00;;;;;;;;;;5057706;28;20202;-89
2023/04/27 14:35:40;;;;;;;4.75;2.00;;;;;;;;;;5040939;28;20216;-89
2023/04/27 14:38:08;;;;;;;3.55;1.70;;;;;;;;;;5041844;28;20267;-89
2023/04/27 14:40:35;;;;;;;2.20;2.00;;;;;;;;;;5053253;28;20216;-89
2023/04/27 14:43:02;;;;;;;3.42;1.85;;;;;;;;;;5042793;28;20212;-89
2023/04/27 14:45:30;;;;;;;2.13;1.73;;;;;;;;;;5041491;28;20235;-90
2023/04/27 14:47:57;;;;;;;3.75;2.00;;;;;;;;;;5046872;28;20299;-91
2023/04/27 14:50:24;;;;;;;3.83;1.98;;;;;;;;;;5037771;28;20205;-89
2023/04/27 14:52:57;;;;;;;4.28;2.40;;;;;;;;;;5046655;28;20209;-89
2023/04/27 14:55:25;;;;;;;3.55;1.98;;;;;;;;;;5041808;28;20227;-90
2023/04/27 14:57:53;;;;;;;3.05;1.98;;;;;;;;;;5043406;28;20273;-90
2023/04/27 15:00:20;;;;;;;2.47;1.90;;;;;;;;;;5051010;28;20199;-90
2023/04/27 15:02:47;;;;;;;3.20;1.90;;;;;;;;;;5051935;28;20282;-89
2023/04/27 15:05:15;;;;;;;2.45;1.63;;;;;;;;;;5045361;28;20215;-89
2023/04/27 15:07:42;;;;;;;4.38;2.00;;;;;;;;;;5041623;28;20191;-90